الصفحة الرئيسية
METAR-TAF:

METAR-TAF

مطار :

مطار سوفارنابومي الدولي

بانكوك-مطار سوفارنابومي الدولي, تايلاند

دائرة عرض: 13-40-52N, خط طول: 100-44-50E, ارتفاع: 2 متر

مراقبة الطقس الحالي

تاريخ ووقت الإصدار 34 دقيقة قبل الساعة 07:00UTC
ريح 10 عقدة من الجنوب/الجنوب الغربي, الاتجاه يتراوح بين الجنوب/الجنوب الشرقي و الغرب/الشمال الغربي
درجة الحرارة 35°درجة مئوية
الرطوبة 50%
ضغط 1008 hPa
الرؤية 10 كم أو أكثر
غيوم قليلة على ارتفاع 2000 قدم

METAR: VTBS 130700Z 20010KT 160V290 9999 FEW020 35/23 Q1008 NOSIG

زمن: 14:34 (07:34 UTC)

توقعات

تاريخ ووقت الإصدار 2ساعات و 34 دقيقة قبل الساعة 05:00UTC
التوقعات صالحة من13 الساعة 06 UTC إلى 14 الساعة 12 UTC
ريح 8 عقدة من الجنوب/الجنوب الغربي
الرؤية 10 كم أو أكثر
غيوم قليلة على ارتفاع 2000 قدم

TAF: VTBS 130500Z 1306/1412 20008KT 9999 FEW020

أرصاد الطقس والتوقعات من أكثر من 4000 مطار (تقارير الطقس للمطار METAR والتنبؤ بالطقس بالمطارTAF).

المحطات المتاحة هي النقط الصفراء والحمراء على الخريطة.

حرك المؤشر فوق النقطة لمعرفة اسم المحطة.

ثم انقر لمعرفة أرصاد وتوقعات الطقس.

لتغيير الخارطة: اضغط على الأزرار الخضراء مع رمز الصليب الأسود للتكبير. على الزر الأخضر مع شرطة للتصغير، أو على الأسهم الخضراء للخرائط المجاورة.


METAR-TAF: